Share

Cimarron, KS (67835)

KKSDODGE3 Elev 2562 ft | 37.77 °N, 100.11 °W | Change Station

Current weather conditions updated 4 seconds ago

Clear
Clear
37.8 °F
Feels Like 35 °F
N
4.0
Wind Variable Wind from SE
Gusts 8.9 mph
Sunrise 7:01 AM
Sunset 8:20 PM
Moon Waning Gibbous

Today is forecast to be Much Warmer than yesterday.

Pressure 30.18 in
Visibility 5.0 miles
Clouds Clear
Windchill 35 °F
Dew Point 36 °F
Humidity 95%
Rainfall 0.00 in
Snow Depth Not available.
UV 0 out of 16
Pollen 11.00 out of 12
Air Quality Not available.
Flu Activity Sporadic
METAR KGCK 181154Z 17007KT 5SM BR CLR 03/02 A3016 RMK AO2 SLP218 70014 T00330022 10056 20028 57008

More Conditions Fewer Conditions

Pressure 30.18 in
Visibility 5.0 miles
Clouds Clear
Windchill 35 °F
Dew Point 36 °F
Humidity 95%
Rainfall 0.00 in
Snow Depth Not available.
UV 0 out of 16
Pollen 11.00 out of 12
Air Quality Not available.
Flu Activity Sporadic
METAR KGCK 181154Z 17007KT 5SM BR CLR 03/02 A3016 RMK AO2 SLP218 70014 T00330022 10056 20028 57008

More Conditions Fewer Conditions

10-Day Forecast

Almanac

Astronomy

Apr. 18, 2014 Rise Set
Actual Time 7:01 AM CDT 8:20 PM CDT
Civil Twilight 6:34 AM CDT 8:47 PM CDT
Nautical Twilight 6:01 AM CDT 9:20 PM CDT
Astronomical Twilight 5:27 AM CDT 9:54 PM CDT
Moon No Moon Rise 9:27 AM CDT
Length of Visible Light 14h 12m
Length of Day
13h 18m
Tomorrow will be 2m 17s longer.
Waning Gibbous, 88% of the Moon is Illuminated
Today
Waning Gibbous
Apr 22
Last Quarter
Apr 29
New
May 6
First Quarter
May 14
Full

Today's Extremes

State Highs State Lows

Community

  • SUNRISE THROUGH THE TREES.
    SUNRISE THROUGH THE TREES.
  • Dog Wood Blossoms
    Dog Wood Blossoms
  • Morning Light
    Morning Light
  • New Day
    New Day
  • Lake Michigan Sunrise
    Lake Michigan Sunrise

WunderPhotos

Upload Photos

1,702,352 photos uploaded!

Nearby

Snow Depth

Station Depth Elevation
No new snow has been reported.

Coastal Water Temperatures

Place Temperature
No Stations Reporting

Earthquake Activity

City Distance Mag. Time & Date
No recent earthquake activity has been reported nearby.
Minimum magnitude displayed is 2.5.

Nearby Weather Stations

Station Location Temp. Windchill Dew Point Humidity Wind Precip. Elev Updated Type
Dodge City, KS 37.8 °F 35 °F 36 °F 95% SE  at  4.0 mph 0.00 in / hr 2562 ft 7:41 AM CDT Rapid Fire
GreyOwl Weather, Dodge City, KS 39.6 °F 40 °F - 255% South  at  3.0 mph 0.00 in / hr 2579 ft 7:40 AM CDT Normal
Summerlon, Dodge City, KS 38.4 °F 33 °F 35 °F 89% South  at  7.0 mph 0.00 in / hr 2602 ft 7:41 AM CDT Normal
South Dodge, Dodge City, KS 38.8 °F 39 °F 38 °F 96% South  at  0.7 mph 0.00 in / hr 2507 ft 7:41 AM CDT Rapid Fire
CAS Airport, Garden City, KS 39.4 °F 32 °F 38 °F 93% South  at  11.0 mph 0.00 in / hr 2900 ft 7:41 AM CDT Rapid Fire

Show More Stations Show Fewer Stations

What do you think?

We're not finished. Please let us know what you like, what you don't like, and what you are still missing.